createdAt,value
2023-05-12T00:01:25.301Z,0.0
2023-05-12T00:06:31.661Z,0.0
2023-05-12T00:11:38.062Z,0.0
2023-05-12T00:16:44.593Z,0.0
2023-05-12T00:22:27.984Z,0.0
2023-05-12T00:27:25.487Z,0.0
2023-05-12T00:33:05.973Z,0.0
2023-05-12T00:37:48.266Z,0.0
2023-05-12T00:42:54.841Z,0.0
2023-05-12T00:48:01.115Z,0.0
2023-05-12T00:53:45.105Z,0.0
2023-05-12T00:58:13.878Z,0.0
2023-05-12T01:03:20.319Z,0.0
2023-05-12T01:08:26.633Z,0.0
2023-05-12T01:13:33.135Z,0.0
2023-05-12T01:18:38.397Z,0.0
2023-05-12T01:23:46.506Z,0.0
2023-05-12T01:28:52.948Z,0.0
2023-05-12T01:33:59.444Z,0.0
2023-05-12T01:39:05.810Z,0.0
2023-05-12T01:44:13.136Z,0.0
2023-05-12T01:49:20.490Z,0.0
2023-05-12T01:54:26.888Z,0.0
2023-05-12T01:59:33.401Z,0.0
2023-05-12T02:04:39.754Z,0.0
2023-05-12T02:09:36.129Z,0.0
2023-05-12T02:14:54.115Z,0.0
2023-05-12T02:20:00.486Z,0.0
2023-05-12T02:25:06.867Z,0.0
2023-05-12T02:30:13.285Z,0.0
2023-05-12T02:35:19.631Z,0.0
2023-05-12T02:40:26.017Z,0.0
2023-05-12T02:45:22.433Z,0.0
2023-05-12T02:55:47.705Z,0.0
2023-05-12T03:01:06.659Z,0.0
2023-05-12T03:06:01.577Z,0.0
2023-05-12T03:11:07.968Z,4.0
2023-05-12T03:16:14.371Z,4.0
2023-05-12T03:21:10.721Z,8.0
2023-05-12T03:26:27.113Z,20.0
2023-05-12T03:31:35.170Z,40.0
2023-05-12T03:36:41.577Z,76.0
2023-05-12T03:41:47.956Z,116.0
2023-05-12T03:46:54.477Z,184.0
2023-05-12T03:52:01.508Z,252.0
2023-05-12T04:02:14.393Z,472.0
2023-05-12T04:07:58.704Z,632.0
2023-05-12T04:13:42.315Z,876.0
2023-05-12T04:18:49.828Z,1072.0
2023-05-12T04:23:56.126Z,1284.0
2023-05-12T04:29:02.499Z,1472.0
2023-05-12T04:34:08.898Z,1676.0
2023-05-12T04:39:15.257Z,1872.0
2023-05-12T04:44:22.744Z,2004.0
2023-05-12T04:49:29.197Z,2108.0
2023-05-12T04:54:39.550Z,2232.0
2023-05-12T05:00:21.003Z,2468.0
2023-05-12T05:04:48.381Z,2752.0
2023-05-12T05:09:54.734Z,3020.0
2023-05-12T05:15:01.125Z,3304.0
2023-05-12T05:20:11.823Z,3644.0
2023-05-12T05:25:04.580Z,3932.0
2023-05-12T05:30:35.020Z,4220.0
2023-05-12T05:35:17.601Z,4444.0
2023-05-12T05:40:44.895Z,4700.0
2023-05-12T05:45:40.164Z,5012.0
2023-05-12T05:50:46.604Z,5356.0
2023-05-12T05:55:42.897Z,5608.0
2023-05-12T06:00:49.275Z,5812.0
2023-05-12T06:05:55.689Z,6208.0
2023-05-12T06:11:12.086Z,6132.0
2023-05-12T06:16:18.524Z,6048.0
2023-05-12T06:21:14.879Z,5900.0
2023-05-12T06:26:31.214Z,5624.0
2023-05-12T06:31:27.649Z,5684.0
2023-05-12T06:36:44.028Z,5808.0
2023-05-12T06:41:50.574Z,5924.0
2023-05-12T06:46:46.941Z,6520.0
2023-05-12T06:52:02.355Z,5652.0
2023-05-12T06:57:09.665Z,5876.0
2023-05-12T07:02:19.614Z,6564.0
2023-05-12T07:07:15.995Z,6732.0
2023-05-12T07:12:32.926Z,8336.0
2023-05-12T07:18:03.525Z,10252.0
2023-05-12T07:22:45.929Z,11320.0
2023-05-12T07:27:52.191Z,13044.0
2023-05-12T07:33:00.200Z,12500.0
2023-05-12T07:38:30.564Z,12608.0
2023-05-12T07:43:40.475Z,14256.0
2023-05-12T07:48:22.832Z,11292.0
2023-05-12T07:53:29.366Z,12672.0
2023-05-12T07:58:35.913Z,13032.0
2023-05-12T08:04:01.430Z,11584.0
2023-05-12T08:09:12.563Z,13460.0
2023-05-12T08:13:44.877Z,14132.0
2023-05-12T08:19:21.309Z,15680.0
2023-05-12T08:24:11.199Z,17216.0
2023-05-12T08:29:17.752Z,19072.0
2023-05-12T08:34:13.948Z,19264.0
2023-05-12T08:39:30.408Z,18144.0
2023-05-12T08:44:35.798Z,21376.0
2023-05-12T08:50:08.328Z,21728.0
2023-05-12T08:54:55.826Z,13520.0
2023-05-12T08:59:57.148Z,11656.0
2023-05-12T09:05:03.484Z,17344.0
2023-05-12T09:10:13.373Z,19232.0
2023-05-12T09:15:06.420Z,22176.0
2023-05-12T09:20:30.981Z,24192.0
2023-05-12T09:25:19.324Z,25184.0
2023-05-12T09:30:35.676Z,28288.0
2023-05-12T09:35:42.087Z,28352.0
2023-05-12T09:40:48.560Z,32000.0
2023-05-12T09:45:54.981Z,27424.0
2023-05-12T09:51:01.327Z,21696.0
2023-05-12T09:56:07.713Z,22464.0
2023-05-12T10:01:18.282Z,24544.0
2023-05-12T10:06:10.440Z,28032.0
2023-05-12T10:11:16.802Z,29344.0
2023-05-12T10:17:11.689Z,37216.0
2023-05-12T10:21:38.693Z,34880.0
2023-05-12T10:26:36.029Z,46624.0
2023-05-12T10:31:52.586Z,36160.0
2023-05-12T10:36:58.876Z,37152.0
2023-05-12T10:42:05.195Z,39840.0
2023-05-12T10:48:21.700Z,58848.0
2023-05-12T10:52:21.563Z,63776.0
2023-05-12T10:57:28.254Z,57600.0
2023-05-12T11:02:36.718Z,61824.0
2023-05-12T11:08:02.523Z,62112.0
2023-05-12T11:12:51.229Z,64512.0
2023-05-12T11:17:56.636Z,56768.0
2023-05-12T11:23:04.087Z,47136.0
2023-05-12T11:28:10.368Z,44096.0
2023-05-12T11:33:16.805Z,46752.0
2023-05-12T11:38:13.162Z,53952.0
2023-05-12T11:43:29.574Z,56352.0
2023-05-12T11:48:35.951Z,58144.0
2023-05-12T11:53:43.935Z,59904.0
2023-05-12T11:59:04.311Z,59488.0
2023-05-12T12:03:56.755Z,57120.0
2023-05-12T12:09:23.136Z,57024.0
2023-05-12T12:14:12.997Z,54080.0
2023-05-12T12:19:19.460Z,55904.0
2023-05-12T12:24:25.990Z,53152.0
2023-05-12T12:30:34.401Z,56352.0
2023-05-12T12:34:38.623Z,54688.0
2023-05-12T12:40:05.126Z,55136.0
2023-05-12T12:44:41.405Z,56128.0
2023-05-12T12:49:57.823Z,14600.0
2023-05-12T12:55:07.772Z,17472.0
2023-05-12T13:00:04.091Z,10868.0
2023-05-12T13:05:20.970Z,50752.0
2023-05-12T13:10:26.962Z,9788.0
2023-05-12T13:15:23.503Z,11260.0
2023-05-12T13:20:39.676Z,6596.0
2023-05-12T13:25:46.065Z,5560.0
2023-05-12T13:30:52.640Z,5956.0
2023-05-12T13:35:48.933Z,6232.0
2023-05-12T13:41:09.381Z,7820.0
2023-05-12T13:46:01.795Z,11380.0
2023-05-12T13:51:08.083Z,13432.0
2023-05-12T13:56:24.550Z,13240.0
2023-05-12T14:02:14.958Z,20000.0
2023-05-12T14:06:57.271Z,12800.0
2023-05-12T14:11:43.688Z,12556.0
2023-05-12T14:16:50.115Z,8252.0
2023-05-12T14:21:56.374Z,6604.0
2023-05-12T14:27:02.830Z,7460.0
2023-05-12T14:32:29.357Z,9060.0
2023-05-12T14:37:05.654Z,10220.0
2023-05-12T14:42:12.139Z,11940.0
2023-05-12T14:47:48.550Z,11848.0
2023-05-12T14:52:34.852Z,10808.0
2023-05-12T14:57:41.242Z,9992.0
2023-05-12T15:03:11.896Z,8180.0
2023-05-12T15:07:54.002Z,8408.0
2023-05-12T15:13:20.555Z,9100.0
2023-05-12T15:18:30.835Z,9936.0
2023-05-12T15:23:13.142Z,9476.0
2023-05-12T15:28:43.758Z,8572.0
2023-05-12T15:33:17.133Z,8244.0
2023-05-12T15:38:33.530Z,7316.0
2023-05-12T15:43:41.495Z,7528.0
2023-05-12T15:48:47.891Z,7104.0
2023-05-12T15:54:29.856Z,6688.0
2023-05-12T15:59:02.156Z,6340.0
2023-05-12T16:04:08.654Z,6108.0
2023-05-12T16:09:35.009Z,5960.0
2023-05-12T16:14:41.383Z,5848.0
2023-05-12T16:19:27.762Z,5752.0
2023-05-12T16:24:54.156Z,5664.0
2023-05-12T16:29:30.512Z,5540.0
2023-05-12T16:35:07.030Z,5884.0
2023-05-12T16:40:17.380Z,5904.0
2023-05-12T16:44:59.720Z,6368.0
2023-05-12T16:49:56.194Z,6076.0
2023-05-12T16:55:12.605Z,6388.0
2023-05-12T17:00:08.944Z,5696.0
2023-05-12T17:06:09.462Z,6292.0
2023-05-12T17:10:55.839Z,5064.0
2023-05-12T17:15:38.135Z,4736.0
2023-05-12T17:20:44.522Z,3972.0
2023-05-12T17:25:50.896Z,2384.0
2023-05-12T17:30:57.325Z,1740.0
2023-05-12T17:36:27.731Z,1852.0
2023-05-12T17:41:30.104Z,1732.0
2023-05-12T17:46:36.756Z,1828.0
2023-05-12T17:51:23.247Z,1800.0
2023-05-12T17:56:29.618Z,1792.0
2023-05-12T18:01:36.036Z,1788.0
2023-05-12T18:06:42.435Z,1824.0
2023-05-12T18:11:48.880Z,1784.0
2023-05-12T18:16:55.339Z,1612.0
2023-05-12T18:22:25.771Z,1440.0
2023-05-12T18:27:28.105Z,1280.0
2023-05-12T18:32:14.471Z,1120.0
2023-05-12T18:37:20.864Z,972.0
2023-05-12T18:42:28.342Z,828.0
2023-05-12T18:47:36.879Z,700.0
2023-05-12T18:53:03.304Z,568.0
2023-05-12T18:58:09.825Z,444.0
2023-05-12T19:04:10.223Z,344.0
2023-05-12T19:08:46.550Z,252.0
2023-05-12T19:13:32.921Z,176.0
2023-05-12T19:18:15.228Z,112.0
2023-05-12T19:23:21.861Z,60.0
2023-05-12T19:29:42.448Z,36.0
2023-05-12T19:33:34.665Z,16.0
2023-05-12T19:39:05.103Z,4.0
2023-05-12T19:43:47.471Z,0.0
2023-05-12T19:49:31.917Z,4.0
2023-05-12T19:54:02.333Z,0.0
2023-05-12T19:59:28.774Z,0.0
2023-05-12T20:04:59.216Z,0.0
2023-05-12T20:09:45.732Z,0.0
2023-05-12T20:14:28.057Z,0.0
2023-05-12T20:19:34.482Z,0.0
2023-05-12T20:24:41.116Z,0.0
2023-05-12T20:30:11.494Z,0.0
2023-05-12T20:34:53.860Z,0.0
2023-05-12T20:40:00.271Z,0.0
2023-05-12T20:45:06.607Z,0.0
2023-05-12T20:50:13.064Z,0.0
2023-05-12T20:55:19.642Z,0.0
2023-05-12T21:00:25.745Z,0.0
2023-05-12T21:05:32.119Z,0.0
2023-05-12T21:10:52.542Z,0.0
2023-05-12T21:16:04.931Z,0.0
2023-05-12T21:21:15.315Z,0.0
2023-05-12T21:25:47.749Z,0.0
2023-05-12T21:32:16.353Z,0.0
2023-05-12T21:36:54.656Z,0.0
2023-05-12T21:41:16.913Z,0.0
2023-05-12T21:46:23.372Z,0.0
2023-05-12T21:52:55.883Z,0.0
2023-05-12T21:57:00.143Z,0.0
2023-05-12T22:02:38.626Z,0.0
2023-05-12T22:06:48.889Z,0.0
2023-05-12T22:11:55.278Z,0.0
2023-05-12T22:17:01.914Z,0.0
2023-05-12T22:22:07.989Z,0.0
2023-05-12T22:28:07.279Z,0.0
2023-05-12T22:32:23.871Z,0.0
2023-05-12T22:37:54.221Z,0.0
2023-05-12T22:42:36.568Z,0.0
2023-05-12T22:47:43.026Z,0.0
2023-05-12T22:52:49.339Z,0.0
2023-05-12T22:58:19.762Z,0.0
2023-05-12T23:03:26.222Z,0.0
2023-05-12T23:08:28.520Z,0.0
2023-05-12T23:13:16.427Z,0.0
2023-05-12T23:18:22.980Z,0.0
2023-05-12T23:24:25.507Z,0.0
2023-05-12T23:28:35.735Z,0.0
2023-05-12T23:33:42.151Z,0.0
2023-05-12T23:38:48.493Z,0.0
2023-05-12T23:43:55.111Z,0.0
2023-05-12T23:49:01.481Z,0.0
2023-05-12T23:54:07.856Z,0.0
2023-05-12T23:59:14.407Z,0.0
